Time;durP1;ratioP1;P1;durP2;ratioP2;P2;SDS_P1;SDS_P2;PMS_P1;PMS_P2;Temp;Humidity;BMP_temperature;BMP_pressure;BME280_temperature;BME280_humidity;BME280_pressure;Samples;Min_cycle;Max_cycle;Signal;HPM_P1;HPM_P2
2023/09/12 00:02:07;;;;;;;30.43;27.23;;;20.40;99.90;;;;;;5121236;27;20432;-79
2023/09/12 00:04:32;;;;;;;33.17;29.73;;;20.40;99.90;;;;;;5104411;27;20086;-79
2023/09/12 00:06:58;;;;;;;31.63;28.33;;;20.30;99.90;;;;;;5121574;27;20049;-79
2023/09/12 00:09:24;;;;;;;30.67;27.60;;;20.30;99.90;;;;;;5121236;27;20043;-79
2023/09/12 00:11:50;;;;;;;31.50;28.23;;;20.30;99.90;;;;;;5138475;27;20046;-79
2023/09/12 00:14:16;;;;;;;32.50;29.10;;;20.30;99.90;;;;;;5087481;27;20417;-79
2023/09/12 00:16:42;;;;;;;31.77;28.47;;;20.30;99.90;;;;;;5138493;27;20046;-79
2023/09/12 00:19:08;;;;;;;32.87;28.73;;;20.30;99.90;;;;;;5156871;27;20043;-78
2023/09/12 00:21:33;;;;;;;32.83;28.13;;;20.30;99.90;;;;;;5156463;27;20554;-79
2023/09/12 00:23:59;;;;;;;31.97;28.60;;;20.30;99.90;;;;;;5156664;27;20042;-78
2023/09/12 00:26:25;;;;;;;30.10;27.03;;;20.30;99.90;;;;;;5156313;27;20500;-79
2023/09/12 00:28:51;;;;;;;30.93;27.80;;;20.30;99.90;;;;;;5121329;27;20047;-78
2023/09/12 00:31:16;;;;;;;30.57;27.33;;;20.30;99.90;;;;;;5156212;27;20104;-78
2023/09/12 00:33:42;;;;;;;31.60;27.37;;;20.30;99.90;;;;;;5120813;27;20098;-78
2023/09/12 00:36:08;;;;;;;30.10;26.87;;;20.20;99.90;;;;;;5156448;27;20052;-78
2023/09/12 00:38:33;;;;;;;31.10;27.77;;;20.20;99.90;;;;;;5137576;27;20043;-78
2023/09/12 00:40:59;;;;;;;32.40;28.53;;;20.20;99.90;;;;;;5138000;27;20050;-78
2023/09/12 00:43:25;;;;;;;33.43;27.50;;;20.20;99.90;;;;;;5155695;27;20054;-78
2023/09/12 00:45:50;;;;;;;29.80;26.73;;;20.20;99.90;;;;;;5137976;27;20082;-77
2023/09/12 00:48:18;;;;;;;30.23;27.13;;;20.20;99.90;;;;;;5137588;27;20053;-78
2023/09/12 00:50:46;;;;;;;30.57;27.30;;;20.20;99.90;;;;;;5120767;27;20444;-78
2023/09/12 00:53:12;;;;;;;31.07;27.77;;;20.10;99.90;;;;;;5137550;27;20078;-77
2023/09/12 00:55:43;;;;;;;31.63;28.43;;;20.10;99.90;;;;;;5120199;27;20038;-77
2023/09/12 00:58:08;;;;;;;30.47;27.33;;;20.10;99.90;;;;;;5137893;27;20117;-77
2023/09/12 01:00:34;;;;;;;31.27;27.77;;;20.10;99.90;;;;;;5137316;27;20130;-78
2023/09/12 01:03:00;;;;;;;33.53;27.50;;;20.10;99.90;;;;;;5103247;27;20087;-78
2023/09/12 01:05:28;;;;;;;30.03;26.90;;;20.10;99.90;;;;;;5154828;27;20430;-78
2023/09/12 01:07:54;;;;;;;31.10;28.00;;;20.10;99.90;;;;;;5155499;27;20121;-78
2023/09/12 01:10:19;;;;;;;31.03;27.93;;;20.10;99.90;;;;;;5137624;27;20051;-78
2023/09/12 01:12:45;;;;;;;31.33;28.00;;;20.10;99.90;;;;;;5137678;27;20061;-77
2023/09/12 01:15:13;;;;;;;32.47;28.90;;;20.00;99.90;;;;;;5120105;27;20474;-78
2023/09/12 01:17:42;;;;;;;29.67;26.67;;;20.10;99.90;;;;;;5136836;27;20505;-78
2023/09/12 01:20:11;;;;;;;33.13;29.53;;;20.10;99.90;;;;;;5155685;27;20054;-77
2023/09/12 01:22:52;;;;;;;31.63;28.20;;;20.00;99.90;;;;;;5120101;27;20049;-78
2023/09/12 01:25:47;;;;;;;32.10;28.63;;;20.00;99.90;;;;;;5137293;27;20050;-78
2023/09/12 01:28:15;;;;;;;30.38;26.88;;;20.00;99.90;;;;;;5137339;27;20513;-77
2023/09/12 01:30:42;;;;;;;31.63;27.07;;;20.00;99.90;;;;;;5156699;27;20046;-78
2023/09/12 01:33:08;;;;;;;31.27;27.73;;;20.00;99.90;;;;;;5156673;27;20047;-78
2023/09/12 01:35:34;;;;;;;31.57;28.37;;;19.90;99.90;;;;;;5119374;27;20090;-78
2023/09/12 01:37:59;;;;;;;30.43;27.13;;;19.90;99.90;;;;;;5136847;27;20078;-77
2023/09/12 01:40:34;;;;;;;31.53;28.33;;;19.90;99.90;;;;;;5154982;27;20474;-78
2023/09/12 01:43:00;;;;;;;;;;;19.80;99.90;;;;;;5137411;27;20454;-77
2023/09/12 01:45:27;;;;;;;31.43;26.63;;;19.80;99.90;;;;;;5154865;27;19970;-78
2023/09/12 01:47:54;;;;;;;28.77;25.97;;;19.80;99.90;;;;;;5136796;27;20082;-78
2023/09/12 01:50:20;;;;;;;29.80;26.73;;;19.80;99.90;;;;;;5119466;27;20090;-78
2023/09/12 01:52:46;;;;;;;29.13;26.03;;;19.70;99.90;;;;;;5119579;27;20039;-79
2023/09/12 01:55:14;;;;;;;30.33;27.10;;;19.70;99.90;;;;;;5155300;27;20051;-79
2023/09/12 01:57:40;;;;;;;30.97;27.50;;;19.60;99.90;;;;;;5154694;27;20501;-79
2023/09/12 02:00:07;;;;;;;30.50;27.13;;;19.50;99.90;;;;;;5136827;27;20055;-78
2023/09/12 02:02:33;;;;;;;29.57;26.43;;;19.50;99.90;;;;;;5135962;27;20148;-78
2023/09/12 02:05:18;;;;;;;30.40;27.27;;;19.50;99.90;;;;;;5119346;27;20125;-78
2023/09/12 02:07:44;;;;;;;;;;;19.50;99.90;;;;;;5136729;27;20059;-78
2023/09/12 02:10:10;;;;;;;30.20;26.90;;;19.40;99.90;;;;;;5136572;27;19919;-78
2023/09/12 02:12:35;;;;;;;30.57;26.90;;;19.40;99.90;;;;;;5119146;27;20524;-78
2023/09/12 02:15:01;;;;;;;30.23;26.00;;;19.40;99.90;;;;;;5119750;27;20042;-79
2023/09/12 02:17:27;;;;;;;31.73;28.43;;;19.40;99.90;;;;;;5154290;27;20039;-79
2023/09/12 02:19:53;;;;;;;31.83;28.40;;;19.30;99.90;;;;;;5119580;27;20180;-79
2023/09/12 02:22:18;;;;;;;29.53;26.33;;;19.30;99.90;;;;;;5136190;27;20034;-79
2023/09/12 02:24:44;;;;;;;31.17;27.87;;;19.30;99.90;;;;;;5135961;27;20091;-79
2023/09/12 02:27:10;;;;;;;31.67;26.97;;;19.30;99.90;;;;;;5136251;27;20039;-79
2023/09/12 02:29:37;;;;;;;30.77;27.47;;;19.20;99.90;;;;;;5118789;27;20367;-79
2023/09/12 02:32:03;;;;;;;30.23;27.00;;;19.20;99.90;;;;;;5136253;27;20079;-79
2023/09/12 02:34:28;;;;;;;31.47;28.00;;;19.20;99.90;;;;;;5101914;27;20031;-76
2023/09/12 02:36:54;;;;;;;31.23;28.03;;;19.20;99.90;;;;;;5136383;27;20100;-77
2023/09/12 02:39:20;;;;;;;31.33;28.13;;;19.10;99.90;;;;;;5154424;27;20053;-77
2023/09/12 02:41:45;;;;;;;31.07;27.87;;;19.10;99.90;;;;;;5154066;27;20039;-77
2023/09/12 02:44:11;;;;;;;29.63;26.53;;;19.10;99.90;;;;;;5154656;27;20047;-79
2023/09/12 02:46:37;;;;;;;35.07;28.20;;;19.10;99.90;;;;;;5118661;27;20042;-78
2023/09/12 02:49:03;;;;;;;30.27;27.13;;;19.00;99.90;;;;;;5154091;27;20151;-78
2023/09/12 02:51:29;;;;;;;30.90;27.77;;;19.00;99.90;;;;;;5135552;27;20046;-79
2023/09/12 02:53:55;;;;;;;32.40;28.97;;;19.00;99.90;;;;;;5135995;27;20055;-78
2023/09/12 02:56:21;;;;;;;31.47;28.23;;;18.90;99.90;;;;;;5135762;27;20058;-78
2023/09/12 02:58:47;;;;;;;32.60;29.17;;;18.90;99.90;;;;;;5118837;27;20050;-79
2023/09/12 03:01:20;;;;;;;33.63;29.43;;;18.90;99.90;;;;;;5136760;27;20058;-78
2023/09/12 03:03:46;;;;;;;33.80;28.43;;;18.80;99.90;;;;;;5135738;27;20363;-79
2023/09/12 03:06:14;;;;;;;31.43;28.00;;;18.80;99.90;;;;;;5135965;27;20058;-79
2023/09/12 03:08:40;;;;;;;29.47;25.83;;;18.80;99.90;;;;;;5118520;27;20058;-79
2023/09/12 03:11:07;;;;;;;30.93;26.80;;;18.80;99.90;;;;;;5136116;27;20050;-79
2023/09/12 03:13:33;;;;;;;59.13;27.80;;;18.80;99.90;;;;;;5118707;27;20538;-79
2023/09/12 03:16:00;;;;;;;35.27;28.67;;;18.80;99.90;;;;;;5154054;27;20050;-78
2023/09/12 03:18:25;;;;;;;29.33;26.13;;;18.80;99.90;;;;;;5135786;27;20129;-78
2023/09/12 03:20:51;;;;;;;30.63;27.27;;;18.80;99.90;;;;;;5153766;27;20141;-79
2023/09/12 03:23:17;;;;;;;31.13;27.27;;;18.80;99.90;;;;;;5118658;27;20043;-78
2023/09/12 03:25:42;;;;;;;29.33;26.10;;;18.80;99.90;;;;;;5153409;27;20130;-79
2023/09/12 03:28:08;;;;;;;30.67;27.17;;;18.80;99.90;;;;;;5119338;27;20047;-79
2023/09/12 03:30:35;;;;;;;29.90;26.80;;;18.90;99.90;;;;;;5121979;27;20130;-79
2023/09/12 03:33:01;;;;;;;32.53;27.50;;;18.80;99.90;;;;;;5122614;27;20050;-78
2023/09/12 03:35:29;;;;;;;35.97;28.03;;;18.80;99.90;;;;;;5157788;27;20458;-79
2023/09/12 03:37:55;;;;;;;32.47;26.50;;;18.80;99.90;;;;;;5138877;27;20054;-79
2023/09/12 03:40:20;;;;;;;29.70;26.63;;;18.70;99.90;;;;;;5139256;27;20104;-78
2023/09/12 03:42:46;;;;;;;33.70;26.30;;;18.70;99.90;;;;;;5138729;27;20050;-79
2023/09/12 03:45:12;;;;;;;28.90;24.93;;;18.70;99.90;;;;;;5139185;27;20090;-78
2023/09/12 03:47:38;;;;;;;28.30;25.27;;;18.80;99.90;;;;;;5138811;27;20104;-79
2023/09/12 03:50:04;;;;;;;29.37;24.80;;;18.80;99.90;;;;;;5139195;27;20487;-79
2023/09/12 03:52:29;;;;;;;26.90;24.00;;;18.80;99.90;;;;;;5138898;27;20039;-78
2023/09/12 03:54:55;;;;;;;28.83;24.90;;;18.80;99.90;;;;;;5121181;27;20895;-78
2023/09/12 03:57:21;;;;;;;30.73;24.13;;;18.80;99.90;;;;;;5157235;27;20398;-78
2023/09/12 03:59:48;;;;;;;28.07;25.03;;;18.90;99.90;;;;;;5156946;27;20478;-78
2023/09/12 04:02:13;;;;;;;40.87;25.43;;;18.80;99.90;;;;;;5138732;27;20055;-78
2023/09/12 04:04:39;;;;;;;28.20;24.93;;;18.80;99.90;;;;;;5156742;27;20501;-79
2023/09/12 04:07:05;;;;;;;40.73;26.00;;;18.90;99.90;;;;;;5138750;27;20099;-78
2023/09/12 04:09:31;;;;;;;51.37;25.87;;;18.80;99.90;;;;;;5157147;27;20128;-78
2023/09/12 04:11:57;;;;;;;45.37;26.37;;;18.80;99.90;;;;;;5138359;27;20287;-79
2023/09/12 04:14:23;;;;;;;90.73;26.67;;;18.80;99.90;;;;;;5104689;27;20474;-78
2023/09/12 04:16:48;;;;;;;68.23;27.20;;;18.70;99.90;;;;;;5138250;27;20393;-78
2023/09/12 04:19:14;;;;;;;42.67;27.23;;;18.70;99.90;;;;;;5121389;27;20509;-78
2023/09/12 04:21:40;;;;;;;83.77;27.67;;;18.60;99.90;;;;;;5120700;27;20125;-79
2023/09/12 04:24:07;;;;;;;37.37;27.20;;;18.60;99.90;;;;;;5121632;27;20065;-78
2023/09/12 04:26:33;;;;;;;43.83;28.30;;;18.60;99.90;;;;;;5138602;27;20498;-78
2023/09/12 04:28:58;;;;;;;32.10;27.20;;;18.60;99.90;;;;;;5137811;27;20085;-79
2023/09/12 04:31:24;;;;;;;31.27;27.87;;;18.70;99.90;;;;;;5138138;27;20484;-78
2023/09/12 04:33:54;;;;;;;34.67;27.57;;;18.70;99.90;;;;;;5137997;27;20086;-78
2023/09/12 04:36:20;;;;;;;39.10;27.53;;;18.60;99.90;;;;;;5138217;27;20130;-78
2023/09/12 04:38:46;;;;;;;36.13;28.50;;;18.70;99.90;;;;;;5120847;27;20049;-78
2023/09/12 04:41:16;;;;;;;35.80;28.83;;;18.70;99.90;;;;;;5136771;27;20047;-79
2023/09/12 04:43:44;;;;;;;42.70;29.57;;;18.70;99.90;;;;;;5137881;27;20133;-80
2023/09/12 04:46:10;;;;;;;35.20;28.73;;;18.70;99.90;;;;;;5120996;27;20363;-79
2023/09/12 04:48:36;;;;;;;38.80;31.13;;;18.70;99.90;;;;;;5156381;27;20095;-78
2023/09/12 04:51:02;;;;;;;45.73;30.00;;;18.70;99.90;;;;;;5138002;27;20671;-78
2023/09/12 04:53:33;;;;;;;46.70;29.73;;;18.70;99.90;;;;;;5137475;27;20038;-77
2023/09/12 04:55:59;;;;;;;52.40;30.70;;;18.60;99.90;;;;;;5120421;27;20486;-78
2023/09/12 04:58:25;;;;;;;43.47;31.13;;;18.60;99.90;;;;;;5137656;27;20054;-78
2023/09/12 05:00:50;;;;;;;47.47;30.93;;;18.60;99.90;;;;;;5137444;27;20057;-78
2023/09/12 05:03:16;;;;;;;40.77;30.00;;;18.60;99.90;;;;;;5137316;27;20483;-78
2023/09/12 05:05:45;;;;;;;44.47;32.50;;;18.50;99.90;;;;;;5137090;27;20051;-78
2023/09/12 05:08:10;;;;;;;41.10;31.47;;;18.50;99.90;;;;;;5120506;27;20117;-78
2023/09/12 05:10:38;;;;;;;46.93;32.67;;;18.50;99.90;;;;;;5137046;27;20130;-78
2023/09/12 05:13:04;;;;;;;42.70;32.83;;;18.50;99.90;;;;;;5136920;27;20049;-78
2023/09/12 05:15:30;;;;;;;38.23;32.07;;;18.50;99.90;;;;;;5155668;27;20129;-78
2023/09/12 05:17:56;;;;;;;39.30;30.90;;;18.50;99.90;;;;;;5136590;27;20095;-78
2023/09/12 05:20:21;;;;;;;38.07;32.63;;;18.50;99.90;;;;;;5155621;27;20046;-78
2023/09/12 05:22:47;;;;;;;34.77;31.00;;;18.50;99.90;;;;;;5155136;27;20046;-79
2023/09/12 05:25:13;;;;;;;35.37;31.30;;;18.50;99.90;;;;;;5137475;27;20057;-79
2023/09/12 05:27:38;;;;;;;35.73;31.87;;;18.50;99.90;;;;;;5119903;27;20083;-78
2023/09/12 05:30:05;;;;;;;35.33;31.53;;;18.40;99.90;;;;;;5119705;27;20053;-79
2023/09/12 05:32:31;;;;;;;34.77;30.93;;;18.50;99.90;;;;;;5137245;27;20046;-79
2023/09/12 05:34:56;;;;;;;36.37;31.97;;;18.50;99.90;;;;;;5136618;27;20049;-78
2023/09/12 05:37:22;;;;;;;36.10;32.27;;;18.50;99.90;;;;;;5103023;27;20049;-79
2023/09/12 05:39:48;;;;;;;37.50;32.47;;;18.50;99.90;;;;;;5136734;27;20035;-81
2023/09/12 05:42:14;;;;;;;35.33;31.50;;;18.50;99.90;;;;;;5119558;27;20046;-78
2023/09/12 05:44:42;;;;;;;35.80;31.63;;;18.60;99.90;;;;;;5136846;27;20050;-78
2023/09/12 05:47:08;;;;;;;36.70;32.27;;;18.60;99.90;;;;;;5119437;27;20043;-79
2023/09/12 05:49:34;;;;;;;35.03;30.17;;;18.60;99.90;;;;;;5119867;27;20046;-78
2023/09/12 05:52:00;;;;;;;37.77;31.00;;;18.60;99.90;;;;;;5135787;27;20065;-79
2023/09/12 05:54:25;;;;;;;37.67;31.10;;;18.60;99.90;;;;;;5136082;27;20056;-78
2023/09/12 05:56:53;;;;;;;41.47;32.07;;;18.60;99.90;;;;;;5114885;27;20055;-79
2023/09/12 05:59:19;;;;;;;37.47;32.20;;;18.60;99.90;;;;;;5134356;27;20076;-78
2023/09/12 06:01:45;;;;;;;45.47;32.10;;;18.70;99.90;;;;;;5132796;27;20047;-78
2023/09/12 06:04:10;;;;;;;36.73;32.50;;;18.70;99.90;;;;;;5132820;27;20047;-78
2023/09/12 06:06:36;;;;;;;49.37;32.50;;;18.70;99.90;;;;;;5133331;27;20069;-78
2023/09/12 06:09:03;;;;;;;38.57;33.67;;;18.70;99.90;;;;;;5098720;27;20047;-79
2023/09/12 06:11:29;;;;;;;62.97;33.40;;;18.70;99.90;;;;;;5133987;27;20130;-78
2023/09/12 06:13:54;;;;;;;67.20;32.10;;;18.80;99.90;;;;;;5132163;27;20141;-79
2023/09/12 06:16:21;;;;;;;36.03;31.63;;;18.80;99.90;;;;;;5132884;27;20043;-79
2023/09/12 06:18:48;;;;;;;48.63;32.83;;;18.80;99.90;;;;;;5132892;27;20057;-78
2023/09/12 06:21:14;;;;;;;47.13;32.60;;;18.80;99.90;;;;;;5132303;27;20043;-78
2023/09/12 06:23:40;;;;;;;46.40;33.93;;;18.90;99.90;;;;;;5133836;27;20072;-79
2023/09/12 06:26:05;;;;;;;38.33;32.37;;;18.90;99.90;;;;;;5133692;28;20130;-78
2023/09/12 06:28:32;;;;;;;58.87;34.40;;;18.90;99.90;;;;;;5133777;27;20043;-78
2023/09/12 06:30:58;;;;;;;42.20;35.20;;;18.90;99.90;;;;;;5133593;28;20195;-78
2023/09/12 06:33:26;;;;;;;50.97;34.73;;;18.90;99.90;;;;;;5132540;28;20040;-78
2023/09/12 06:35:52;;;;;;;57.23;35.93;;;19.00;99.90;;;;;;5132716;28;20047;-78
2023/09/12 06:38:22;;;;;;;66.43;37.77;;;19.00;99.90;;;;;;5133558;28;20039;-77
2023/09/12 06:40:48;;;;;;;54.37;36.37;;;19.00;99.90;;;;;;5133658;28;20046;-78
2023/09/12 06:43:14;;;;;;;51.10;37.67;;;19.00;99.90;;;;;;5132354;28;20043;-78
2023/09/12 06:45:43;;;;;;;50.43;38.50;;;19.00;99.90;;;;;;5115550;28;20046;-78
2023/09/12 06:48:09;;;;;;;48.60;37.47;;;19.00;99.90;;;;;;5132211;28;20100;-79
2023/09/12 06:50:37;;;;;;;55.53;37.77;;;19.00;99.90;;;;;;5115484;28;20417;-77
2023/09/12 06:53:06;;;;;;;50.43;39.80;;;19.00;99.90;;;;;;5115266;28;20051;-77
2023/09/12 06:55:32;;;;;;;53.63;41.13;;;19.00;99.90;;;;;;5118516;27;20051;-77
2023/09/12 06:57:58;;;;;;;53.30;41.33;;;19.10;99.90;;;;;;5118732;27;20448;-78
2023/09/12 07:00:25;;;;;;;49.40;39.37;;;19.10;99.90;;;;;;5118821;27;20034;-77
2023/09/12 07:02:51;;;;;;;55.73;42.63;;;19.20;99.90;;;;;;5102131;27;20081;-76
2023/09/12 07:05:23;;;;;;;56.13;43.47;;;19.20;99.90;;;;;;5108241;27;20087;-76
2023/09/12 07:07:49;;;;;;;65.03;44.37;;;19.20;99.90;;;;;;5105778;27;20046;-76
2023/09/12 07:10:21;;;;;;;57.07;42.87;;;19.30;99.90;;;;;;5122059;27;20474;-77
2023/09/12 07:13:00;;;;;;;58.43;42.80;;;19.30;99.90;;;;;;5158060;27;20125;-77
2023/09/12 07:15:27;;;;;;;57.57;42.10;;;19.30;99.90;;;;;;5123103;27;20123;-77
2023/09/12 07:17:53;;;;;;;62.47;42.50;;;19.40;99.90;;;;;;5105067;27;20084;-77
2023/09/12 07:20:21;;;;;;;68.23;45.43;;;19.40;99.90;;;;;;5121875;27;20249;-77
2023/09/12 07:22:53;;;;;;;58.53;44.60;;;19.40;99.90;;;;;;5139035;27;20051;-77
2023/09/12 07:25:23;;;;;;;57.53;41.90;;;19.40;99.90;;;;;;5139096;27;20057;-77
2023/09/12 07:27:50;;;;;;;59.57;44.50;;;19.40;99.90;;;;;;5138380;27;20054;-77
2023/09/12 07:30:24;;;;;;;59.60;42.97;;;19.40;99.90;;;;;;5121732;27;20050;-77
2023/09/12 07:32:59;;;;;;;64.20;45.57;;;19.40;99.90;;;;;;5099801;27;20107;-77
2023/09/12 07:35:25;;;;;;;61.80;44.27;;;19.40;99.90;;;;;;5104753;27;20125;-77
2023/09/12 07:37:51;;;;;;;64.07;46.37;;;19.40;99.90;;;;;;5121817;27;20541;-77
2023/09/12 07:40:16;;;;;;;63.63;44.57;;;19.50;99.90;;;;;;5104933;27;20047;-79
2023/09/12 07:42:42;;;;;;;61.40;43.80;;;19.50;99.90;;;;;;5104876;27;20360;-78
2023/09/12 07:45:09;;;;;;;70.20;45.20;;;19.60;99.90;;;;;;5138786;27;20050;-78
2023/09/12 07:47:34;;;;;;;61.23;45.47;;;19.60;99.90;;;;;;5105203;27;20134;-78
2023/09/12 07:50:00;;;;;;;61.10;43.40;;;19.60;99.90;;;;;;5139165;27;20470;-77
2023/09/12 07:52:26;;;;;;;58.23;42.60;;;19.70;99.90;;;;;;5121578;27;20129;-79
2023/09/12 07:54:56;;;;;;;58.97;45.87;;;19.70;99.90;;;;;;5104687;27;20373;-76
2023/09/12 07:57:23;;;;;;;62.10;44.20;;;19.80;99.90;;;;;;5122008;27;20512;-77
2023/09/12 07:59:49;;;;;;;61.67;43.70;;;19.90;99.90;;;;;;5088035;27;20133;-77
2023/09/12 08:02:15;;;;;;;59.43;42.87;;;20.00;99.90;;;;;;5087516;27;20134;-78
2023/09/12 08:04:41;;;;;;;56.00;42.20;;;20.00;99.90;;;;;;5138768;27;20084;-77
2023/09/12 08:07:06;;;;;;;55.67;43.33;;;20.10;99.90;;;;;;5121513;27;20047;-78
2023/09/12 08:09:53;;;;;;;54.53;41.50;;;20.20;99.90;;;;;;5121280;27;20051;-77
2023/09/12 08:12:20;;;;;;;58.07;42.53;;;20.30;99.90;;;;;;5138359;27;20046;-77
2023/09/12 08:14:46;;;;;;;56.00;41.83;;;20.30;99.90;;;;;;5104353;27;20085;-78
2023/09/12 08:17:13;;;;;;;58.00;43.13;;;20.40;99.90;;;;;;5104256;27;20146;-77
2023/09/12 08:19:40;;;;;;;54.97;41.87;;;20.50;99.90;;;;;;5134974;27;20043;-77
2023/09/12 08:22:18;;;;;;;52.93;41.60;;;20.50;99.90;;;;;;5122547;27;20071;-78
2023/09/12 08:24:45;;;;;;;55.43;43.03;;;20.50;99.90;;;;;;5120922;27;20047;-77
2023/09/12 08:27:16;;;;;;;52.33;41.93;;;20.50;99.90;;;;;;5121554;27;20039;-77
2023/09/12 08:29:43;;;;;;;57.33;42.43;;;20.40;99.90;;;;;;5121193;27;20059;-76
2023/09/12 08:32:14;;;;;;;60.80;42.83;;;20.40;99.90;;;;;;5122553;27;20398;-77
2023/09/12 08:34:41;;;;;;;56.20;44.20;;;20.40;99.90;;;;;;5122016;27;20034;-77
2023/09/12 08:37:08;;;;;;;58.07;44.63;;;20.40;99.90;;;;;;5137394;27;20034;-76
2023/09/12 08:39:43;;;;;;;57.47;43.83;;;20.40;99.90;;;;;;5103709;27;20497;-76
2023/09/12 08:42:13;;;;;;;58.47;43.25;;;20.50;99.90;;;;;;5156216;27;20041;-78
2023/09/12 08:44:41;;;;;;;56.87;43.63;;;20.50;99.90;;;;;;5138154;27;20054;-76
2023/09/12 08:47:12;;;;;;;63.77;45.40;;;20.60;99.90;;;;;;5137957;27;20057;-76
2023/09/12 08:49:37;;;;;;;60.43;43.43;;;20.70;99.90;;;;;;5120916;27;20042;-76
2023/09/12 08:52:04;;;;;;;54.47;42.10;;;20.80;99.90;;;;;;5137981;27;20065;-76
2023/09/12 08:54:32;;;;;;;55.13;42.33;;;20.90;99.90;;;;;;5103759;27;20069;-73
2023/09/12 08:56:58;;;;;;;60.43;44.87;;;21.00;99.90;;;;;;5133684;27;20047;-74
2023/09/12 08:59:24;;;;;;;57.90;43.10;;;21.00;99.90;;;;;;5086416;28;20060;-75
2023/09/12 09:01:52;;;;;;;55.20;42.53;;;21.10;99.90;;;;;;5103718;28;20047;-74
2023/09/12 09:04:19;;;;;;;55.43;41.63;;;21.10;99.90;;;;;;5101868;28;20044;-76
2023/09/12 09:06:46;;;;;;;55.20;43.47;;;21.20;99.90;;;;;;5087474;28;20480;-75
2023/09/12 09:09:12;;;;;;;53.90;41.00;;;21.30;99.90;;;;;;5048354;28;20044;-76
2023/09/12 09:11:38;;;;;;;51.73;39.90;;;21.40;99.90;;;;;;5092924;28;20048;-72
2023/09/12 09:14:04;;;;;;;50.03;39.60;;;21.50;99.90;;;;;;5094049;28;20055;-73
2023/09/12 09:16:30;;;;;;;50.57;39.50;;;21.60;99.90;;;;;;5075800;28;20044;-73
2023/09/12 09:19:09;;;;;;;47.57;37.60;;;21.80;99.90;;;;;;5092984;28;20480;-74
2023/09/12 09:21:36;;;;;;;50.00;37.73;;;21.80;99.90;;;;;;5075548;28;20044;-78
2023/09/12 09:24:07;;;;;;;47.70;37.77;;;21.90;99.90;;;;;;5092895;28;20051;-81
2023/09/12 09:26:47;;;;;;;44.20;35.80;;;22.00;99.90;;;;;;5093121;28;20047;-80
2023/09/12 09:29:18;;;;;;;46.33;34.77;;;22.00;99.90;;;;;;5092833;28;20068;-75
2023/09/12 09:31:45;;;;;;;48.50;37.70;;;22.00;99.90;;;;;;5092771;28;20048;-79
2023/09/12 09:34:17;;;;;;;43.87;35.07;;;22.00;99.90;;;;;;5092753;28;20462;-75
2023/09/12 09:36:44;;;;;;;49.73;36.63;;;22.00;99.90;;;;;;5092554;28;20051;-75
2023/09/12 09:39:11;;;;;;;45.90;36.13;;;22.00;99.90;;;;;;5075929;28;20040;-76
2023/09/12 09:41:37;;;;;;;45.13;35.77;;;22.00;99.90;;;;;;5075422;28;20058;-78
2023/09/12 09:44:06;;;;;;;43.43;33.90;;;22.10;99.90;;;;;;5092122;28;20048;-74
2023/09/12 09:46:33;;;;;;;42.37;33.47;;;22.10;99.90;;;;;;5092083;28;20043;-74
2023/09/12 09:48:59;;;;;;;43.20;33.27;;;22.20;99.90;;;;;;5092545;28;20052;-78
2023/09/12 09:51:38;;;;;;;39.03;31.53;;;22.30;99.90;;;;;;5042288;28;20052;-77
2023/09/12 09:54:08;;;;;;;38.90;31.03;;;22.50;99.90;;;;;;5092607;28;20495;-77
2023/09/12 09:56:54;;;;;;;41.57;32.00;;;22.60;99.90;;;;;;5083692;28;20051;-78
2023/09/12 09:59:39;;;;;;;38.33;31.10;;;22.70;99.90;;;;;;5112314;28;20049;-78
2023/09/12 10:02:21;;;;;;;33.17;26.10;;;22.80;99.90;;;;;;5111011;28;20054;-78
2023/09/12 10:04:55;;;;;;;26.93;22.43;;;22.90;99.90;;;;;;5082204;28;20502;-78
2023/09/12 10:07:22;;;;;;;21.73;19.23;;;23.00;99.90;;;;;;5078679;28;20476;-77
2023/09/12 10:09:58;;;;;;;23.03;17.97;;;23.10;99.90;;;;;;5079670;28;20043;-77
2023/09/12 10:12:35;;;;;;;23.13;17.73;;;23.10;99.90;;;;;;5081298;28;20051;-78
2023/09/12 10:15:04;;;;;;;19.23;15.73;;;23.20;99.90;;;;;;5112732;28;20136;-77
2023/09/12 10:17:38;;;;;;;23.23;17.50;;;23.20;99.90;;;;;;5094769;28;20047;-78
2023/09/12 10:20:13;;;;;;;20.63;16.30;;;23.40;99.90;;;;;;5095373;28;20077;-77
2023/09/12 10:23:00;;;;;;;19.53;14.90;;;23.40;99.90;;;;;;5112660;28;20052;-78
2023/09/12 10:25:34;;;;;;;18.47;15.40;;;23.50;99.90;;;;;;5098270;28;20043;-78
2023/09/12 10:28:06;;;;;;;19.00;15.73;;;23.60;99.90;;;;;;5113680;28;20116;-78
2023/09/12 10:30:37;;;;;;;20.00;17.27;;;23.70;99.90;;;;;;5094526;28;20051;-78
2023/09/12 10:33:05;;;;;;;22.70;17.83;;;23.80;99.90;;;;;;5111250;28;20086;-76
2023/09/12 10:35:35;;;;;;;21.83;17.67;;;23.90;99.90;;;;;;5079447;28;20055;-78
2023/09/12 10:38:08;;;;;;;22.10;16.73;;;23.90;99.90;;;;;;5095277;28;20089;-80
2023/09/12 10:40:38;;;;;;;20.60;16.63;;;23.80;99.90;;;;;;5082539;28;20047;-77
2023/09/12 10:43:16;;;;;;;21.47;15.40;;;23.90;99.90;;;;;;5100860;28;20044;-78
2023/09/12 10:45:46;;;;;;;21.67;16.90;;;23.90;99.90;;;;;;5116179;28;20067;-77
2023/09/12 10:48:13;;;;;;;21.87;16.80;;;24.00;99.90;;;;;;5099459;28;20487;-77
2023/09/12 10:50:46;;;;;;;21.13;15.57;;;24.00;99.90;;;;;;5116083;28;20054;-77
2023/09/12 10:53:25;;;;;;;19.93;15.60;;;24.00;99.90;;;;;;5079564;28;20060;-77
2023/09/12 10:56:03;;;;;;;20.30;14.33;;;24.10;99.90;;;;;;5094219;28;20056;-78
2023/09/12 10:58:38;;;;;;;21.17;15.30;;;24.20;99.90;;;;;;5046005;28;20044;-77
2023/09/12 11:01:26;;;;;;;18.43;14.67;;;24.20;99.90;;;;;;5065803;28;20075;-77
2023/09/12 11:03:59;;;;;;;18.27;15.40;;;24.30;99.90;;;;;;5078750;28;20139;-77
2023/09/12 11:06:32;;;;;;;18.87;14.43;;;24.30;99.90;;;;;;5061262;28;20056;-77
2023/09/12 11:09:26;;;;;;;17.83;13.83;;;24.30;99.90;;;;;;5045896;28;20145;-74
2023/09/12 11:12:01;;;;;;;18.33;14.53;;;24.30;99.90;;;;;;5079142;28;20055;-70
2023/09/12 11:14:27;;;;;;;21.53;15.10;;;24.40;99.90;;;;;;5093744;28;20055;-71
2023/09/12 11:17:08;;;;;;;20.00;14.57;;;24.40;99.90;;;;;;5094120;28;20052;-70
2023/09/12 11:19:54;;;;;;;17.70;14.17;;;24.50;99.90;;;;;;5093845;28;20052;-71
2023/09/12 11:22:25;;;;;;;20.07;15.43;;;24.50;99.90;;;;;;5077190;28;20052;-76
2023/09/12 11:24:52;;;;;;;21.37;15.07;;;24.50;99.90;;;;;;5088643;28;20056;-76
2023/09/12 11:27:21;;;;;;;18.73;13.23;;;24.60;99.90;;;;;;5094888;28;20052;-77
2023/09/12 11:29:50;;;;;;;16.60;12.07;;;24.60;99.90;;;;;;5094765;28;20048;-77
2023/09/12 11:32:44;;;;;;;34.97;14.33;;;24.70;99.90;;;;;;5095055;28;20067;-76
2023/09/12 11:35:15;;;;;;;17.93;10.87;;;24.60;99.90;;;;;;5096231;28;20116;-76
2023/09/12 11:37:55;;;;;;;17.17;10.20;;;24.60;99.90;;;;;;5077779;28;20043;-76
2023/09/12 11:40:33;;;;;;;13.03;9.33;;;24.60;99.90;;;;;;5078163;28;20055;-76
2023/09/12 11:43:00;;;;;;;14.53;10.30;;;24.60;99.90;;;;;;5077880;28;20048;-76
2023/09/12 11:45:33;;;;;;;14.77;10.60;;;24.50;99.90;;;;;;5093654;28;20061;-71
2023/09/12 11:47:59;;;;;;;17.83;11.57;;;24.50;99.90;;;;;;5094541;28;20127;-75
2023/09/12 11:50:36;;;;;;;18.07;11.43;;;24.40;99.90;;;;;;5060823;28;20182;-75
2023/09/12 11:53:05;;;;;;;15.50;11.77;;;24.40;99.90;;;;;;5077295;28;20100;-77
2023/09/12 11:55:36;;;;;;;14.43;11.17;;;24.30;99.90;;;;;;5094729;28;20040;-69
2023/09/12 11:58:02;;;;;;;17.67;11.87;;;24.20;99.90;;;;;;5131256;27;20055;-69
2023/09/12 12:00:28;;;;;;;15.30;11.17;;;24.10;99.90;;;;;;5136077;27;20558;-68
2023/09/12 12:02:55;;;;;;;14.73;11.20;;;24.20;99.90;;;;;;5116993;27;20126;-71
2023/09/12 12:05:22;;;;;;;14.30;10.33;;;24.20;99.90;;;;;;5101316;27;20101;-76
2023/09/12 12:07:49;;;;;;;17.83;11.47;;;24.20;99.90;;;;;;5067725;27;20445;-75
2023/09/12 12:10:16;;;;;;;15.23;10.90;;;24.20;99.90;;;;;;5118079;27;20390;-75
2023/09/12 12:12:48;;;;;;;15.87;10.73;;;24.20;99.90;;;;;;5134497;27;20560;-76
2023/09/12 12:15:14;;;;;;;20.80;13.97;;;24.30;99.90;;;;;;5136284;27;20505;-75
2023/09/12 12:17:42;;;;;;;16.83;12.23;;;24.20;99.90;;;;;;5118855;27;20047;-76
2023/09/12 12:20:10;;;;;;;13.50;10.93;;;24.20;99.90;;;;;;5101053;27;20510;-75
2023/09/12 12:22:40;;;;;;;15.50;10.77;;;24.20;99.90;;;;;;5117526;27;20487;-76
2023/09/12 12:25:07;;;;;;;14.30;8.83;;;24.20;99.90;;;;;;5136071;27;20047;-75
2023/09/12 12:27:39;;;;;;;12.23;8.20;;;24.10;99.90;;;;;;5117582;27;20051;-75
2023/09/12 12:30:12;;;;;;;13.50;9.00;;;24.10;99.90;;;;;;5117720;27;20043;-75
2023/09/12 12:32:50;;;;;;;11.52;7.93;;;24.30;99.90;;;;;;5135684;27;20047;-75
2023/09/12 12:35:24;;;;;;;11.43;8.63;;;24.30;99.90;;;;;;5117779;27;20436;-74